Time;durP1;ratioP1;P1;durP2;ratioP2;P2;SDS_P1;SDS_P2;PMS_P1;PMS_P2;Temp;Humidity;BMP_temperature;BMP_pressure;BME280_temperature;BME280_humidity;BME280_pressure;Samples;Min_cycle;Max_cycle;Signal;HPM_P1;HPM_P2
2022/05/12 00:02:09;;;;;;;7.93;5.20;;;20.00;98.30;;;;;;5091587;28;20114;-64
2022/05/12 00:04:38;;;;;;;8.35;5.40;;;20.00;98.20;;;;;;5098617;28;20054;-65
2022/05/12 00:07:06;;;;;;;9.85;5.25;;;20.00;97.90;;;;;;5108837;28;20036;-65
2022/05/12 00:09:34;;;;;;;10.38;5.05;;;20.00;97.90;;;;;;5102332;28;20046;-65
2022/05/12 00:12:03;;;;;;;10.40;5.18;;;20.00;98.00;;;;;;5109045;28;20425;-65
2022/05/12 00:14:30;;;;;;;12.52;5.35;;;19.90;97.80;;;;;;5109345;28;20550;-66
2022/05/12 00:16:57;;;;;;;12.20;5.32;;;19.90;97.90;;;;;;5108754;28;20533;-65
2022/05/12 00:19:29;;;;;;;8.38;4.85;;;19.90;98.00;;;;;;5110376;27;20089;-66
2022/05/12 00:21:56;;;;;;;9.57;5.10;;;19.80;97.90;;;;;;5096648;28;20134;-66
2022/05/12 00:24:24;;;;;;;8.43;4.90;;;19.80;97.40;;;;;;5102756;28;20478;-66
2022/05/12 00:26:51;;;;;;;8.82;4.75;;;19.80;97.60;;;;;;5099584;28;20063;-66
2022/05/12 00:29:19;;;;;;;7.45;5.00;;;19.80;97.30;;;;;;5108829;28;20502;-66
2022/05/12 00:31:47;;;;;;;11.30;5.13;;;19.90;97.00;;;;;;5108514;28;20051;-66
2022/05/12 00:34:17;;;;;;;8.13;5.10;;;19.80;96.80;;;;;;5107159;28;20051;-66
2022/05/12 00:36:45;;;;;;;8.95;5.18;;;19.90;96.60;;;;;;5107113;28;20118;-66
2022/05/12 00:39:12;;;;;;;9.88;5.15;;;19.90;96.60;;;;;;5104412;28;20044;-65
2022/05/12 00:41:40;;;;;;;9.40;4.68;;;19.90;96.40;;;;;;5104307;28;20074;-65
2022/05/12 00:44:10;;;;;;;7.95;4.30;;;19.90;96.10;;;;;;5099021;28;20032;-65
2022/05/12 00:46:40;;;;;;;9.23;4.63;;;20.00;95.90;;;;;;5102735;28;20069;-65
2022/05/12 00:49:13;;;;;;;8.90;4.28;;;20.00;96.00;;;;;;5101319;28;20040;-65
2022/05/12 00:51:48;;;;;;;7.90;4.43;;;19.90;96.00;;;;;;5103178;28;20043;-65
2022/05/12 00:54:20;;;;;;;7.43;4.30;;;19.80;96.20;;;;;;5107987;28;20130;-66
2022/05/12 00:56:48;;;;;;;;;;;19.70;96.40;;;;;;5105129;28;20154;-65
2022/05/12 00:59:30;;;;;;;6.45;4.35;;;19.60;96.50;;;;;;5103319;28;19924;-67
2022/05/12 01:01:59;;;;;;;7.22;4.32;;;19.50;96.50;;;;;;5105552;28;20047;-65
2022/05/12 01:04:31;;;;;;;6.55;4.28;;;19.40;96.60;;;;;;5094618;28;20049;-64
2022/05/12 01:06:59;;;;;;;5.30;3.80;;;19.40;96.90;;;;;;5107231;28;20042;-65
2022/05/12 01:09:28;;;;;;;7.25;4.20;;;19.30;97.00;;;;;;5107953;28;20600;-66
2022/05/12 01:11:56;;;;;;;8.80;4.32;;;19.30;96.80;;;;;;5108105;28;20530;-65
2022/05/12 01:14:23;;;;;;;6.35;3.85;;;19.30;96.90;;;;;;5093722;28;20146;-65
2022/05/12 01:16:57;;;;;;;8.27;4.18;;;19.20;96.80;;;;;;5106175;28;20047;-65
2022/05/12 01:19:33;;;;;;;6.43;4.13;;;19.20;97.10;;;;;;5103058;28;20104;-65
2022/05/12 01:22:03;;;;;;;6.13;4.43;;;19.10;97.20;;;;;;5098904;28;20040;-66
2022/05/12 01:24:42;;;;;;;7.88;3.90;;;19.00;97.20;;;;;;5105694;28;20032;-65
2022/05/12 01:27:22;;;;;;;8.40;3.90;;;19.00;97.00;;;;;;5107923;28;20044;-66
2022/05/12 01:29:55;;;;;;;6.88;3.90;;;19.10;96.90;;;;;;5107173;28;20463;-67
2022/05/12 01:32:26;;;;;;;6.90;4.20;;;19.10;96.80;;;;;;5105520;28;20054;-65
2022/05/12 01:34:54;;;;;;;7.23;4.30;;;19.10;96.80;;;;;;5107799;28;20050;-66
2022/05/12 01:37:23;;;;;;;8.48;4.75;;;19.10;96.70;;;;;;5101378;28;20610;-65
2022/05/12 01:39:51;;;;;;;5.68;4.43;;;19.00;97.00;;;;;;5107799;28;20502;-66
2022/05/12 01:42:19;;;;;;;7.40;4.18;;;19.00;97.00;;;;;;5096336;28;20550;-65
2022/05/12 01:44:47;;;;;;;6.25;3.92;;;19.00;96.90;;;;;;5095767;28;20508;-65
2022/05/12 01:47:16;;;;;;;6.60;4.18;;;19.00;97.00;;;;;;5107849;28;20036;-65
2022/05/12 01:49:43;;;;;;;6.65;4.40;;;18.90;97.20;;;;;;5103826;28;20040;-66
2022/05/12 01:52:10;;;;;;;6.00;4.10;;;18.90;97.20;;;;;;5107228;28;20497;-66
2022/05/12 01:54:38;;;;;;;5.90;4.00;;;18.90;97.20;;;;;;5104327;28;20481;-66
2022/05/12 01:57:05;;;;;;;8.80;4.93;;;18.80;97.30;;;;;;5106885;28;20046;-66
2022/05/12 01:59:33;;;;;;;6.15;4.10;;;18.80;97.50;;;;;;5107035;28;20603;-66
2022/05/12 02:02:00;;;;;;;8.07;4.40;;;18.70;97.70;;;;;;5089703;28;20036;-66
2022/05/12 02:04:28;;;;;;;5.97;4.40;;;18.70;97.60;;;;;;5095967;28;20056;-66
2022/05/12 02:06:55;;;;;;;7.93;4.10;;;18.70;98.10;;;;;;5098351;28;20123;-66
2022/05/12 02:09:23;;;;;;;6.63;3.72;;;18.70;97.70;;;;;;5105704;28;20471;-66
2022/05/12 02:11:50;;;;;;;7.97;4.22;;;18.60;97.90;;;;;;5093341;28;20371;-66
2022/05/12 02:14:18;;;;;;;7.13;3.78;;;18.60;97.80;;;;;;5106067;28;20581;-65
2022/05/12 02:16:45;;;;;;;7.63;4.10;;;18.60;97.90;;;;;;5099502;28;20039;-64
2022/05/12 02:19:12;;;;;;;7.70;4.20;;;18.70;97.60;;;;;;5109074;27;20442;-66
2022/05/12 02:21:40;;;;;;;7.22;3.53;;;18.70;97.80;;;;;;5104122;27;20175;-66
2022/05/12 02:24:07;;;;;;;7.63;4.03;;;18.60;97.70;;;;;;5107473;27;20751;-65
2022/05/12 02:26:35;;;;;;;7.72;3.70;;;18.70;97.50;;;;;;5108106;28;20039;-65
2022/05/12 02:29:04;;;;;;;7.72;4.07;;;18.70;97.40;;;;;;5110720;28;20112;-66
2022/05/12 02:31:31;;;;;;;8.43;3.92;;;18.70;97.40;;;;;;5105023;28;20564;-65
2022/05/12 02:34:00;;;;;;;9.07;4.10;;;18.70;97.50;;;;;;5110336;28;20093;-65
2022/05/12 02:36:27;;;;;;;6.95;4.07;;;18.70;97.30;;;;;;5104890;28;20047;-65
2022/05/12 02:38:54;;;;;;;6.20;3.60;;;18.70;97.10;;;;;;5094685;28;20421;-65
2022/05/12 02:41:22;;;;;;;6.72;3.85;;;18.80;97.00;;;;;;5103294;28;20035;-65
2022/05/12 02:43:49;;;;;;;6.63;3.88;;;18.90;97.00;;;;;;5102125;28;20059;-66
2022/05/12 02:46:17;;;;;;;6.97;3.50;;;18.80;97.10;;;;;;5100785;28;20494;-67
2022/05/12 02:48:46;;;;;;;6.80;3.67;;;18.80;97.20;;;;;;5110587;28;20085;-67
2022/05/12 02:51:14;;;;;;;5.65;3.72;;;18.70;97.40;;;;;;5108318;28;20055;-66
2022/05/12 02:53:41;;;;;;;7.32;3.75;;;18.70;97.40;;;;;;5098364;28;20057;-67
2022/05/12 02:56:09;;;;;;;5.38;3.60;;;18.70;97.60;;;;;;5094211;28;20397;-66
2022/05/12 02:58:37;;;;;;;8.48;3.75;;;18.60;97.80;;;;;;5102759;28;20089;-67
2022/05/12 03:01:05;;;;;;;6.03;3.90;;;18.60;97.90;;;;;;5098938;28;20402;-66
2022/05/12 03:03:33;;;;;;;7.50;3.95;;;18.60;98.00;;;;;;5087896;28;20044;-66
2022/05/12 03:06:00;;;;;;;6.80;3.70;;;18.50;98.10;;;;;;5108790;28;20051;-66
2022/05/12 03:08:28;;;;;;;7.40;3.80;;;18.50;98.30;;;;;;5095373;28;20083;-66
2022/05/12 03:10:55;;;;;;;10.43;4.20;;;18.40;98.30;;;;;;5106326;28;20048;-66
2022/05/12 03:13:23;;;;;;;7.40;3.80;;;18.40;98.60;;;;;;5101587;28;20839;-66
2022/05/12 03:15:51;;;;;;;6.80;3.90;;;18.30;98.80;;;;;;5093000;28;20043;-66
2022/05/12 03:18:19;;;;;;;5.60;3.60;;;18.30;99.10;;;;;;5102650;28;20508;-66
2022/05/12 03:20:46;;;;;;;10.52;3.95;;;18.30;99.20;;;;;;5110540;27;20383;-66
2022/05/12 03:23:22;;;;;;;5.85;3.60;;;18.30;99.50;;;;;;5108095;28;20078;-66
2022/05/12 03:25:51;;;;;;;6.75;3.55;;;18.30;99.80;;;;;;5105209;28;20058;-67
2022/05/12 03:28:18;;;;;;;7.95;4.38;;;18.30;99.90;;;;;;5109070;28;20528;-66
2022/05/12 03:30:46;;;;;;;7.35;3.90;;;18.30;99.90;;;;;;5107284;28;20085;-66
2022/05/12 03:33:14;;;;;;;6.95;4.03;;;18.30;99.90;;;;;;5097435;28;20048;-65
2022/05/12 03:35:41;;;;;;;5.55;3.53;;;18.40;99.90;;;;;;5109862;27;20047;-65
2022/05/12 03:38:08;;;;;;;9.60;4.28;;;18.40;99.90;;;;;;5108786;28;20122;-65
2022/05/12 03:40:36;;;;;;;12.43;4.47;;;18.40;99.90;;;;;;5101834;28;20039;-65
2022/05/12 03:43:03;;;;;;;7.68;4.22;;;18.40;99.90;;;;;;5108956;28;20050;-65
2022/05/12 03:45:33;;;;;;;7.85;4.22;;;18.30;99.90;;;;;;5109762;28;20043;-66
2022/05/12 03:48:01;;;;;;;7.20;4.03;;;18.30;99.90;;;;;;5106090;28;20650;-66
2022/05/12 03:50:29;;;;;;;8.50;4.00;;;18.30;99.90;;;;;;5108470;28;20141;-67
2022/05/12 03:52:57;;;;;;;8.40;4.15;;;18.40;99.90;;;;;;5108672;28;20561;-65
2022/05/12 03:55:26;;;;;;;8.50;3.83;;;18.50;99.90;;;;;;5105237;28;20486;-65
2022/05/12 03:57:55;;;;;;;6.20;3.90;;;18.50;99.90;;;;;;5107624;28;20088;-66
2022/05/12 04:00:27;;;;;;;8.70;3.88;;;18.60;99.90;;;;;;5105904;28;20043;-67
2022/05/12 04:02:56;;;;;;;10.32;4.35;;;18.60;99.90;;;;;;5089825;28;20375;-66
2022/05/12 04:05:24;;;;;;;9.57;3.90;;;18.60;99.90;;;;;;5104169;28;20054;-65
2022/05/12 04:07:51;;;;;;;5.95;3.75;;;18.50;99.90;;;;;;5099440;28;20056;-67
2022/05/12 04:10:20;;;;;;;6.95;3.97;;;18.50;99.90;;;;;;5103896;28;20082;-66
2022/05/12 04:12:48;;;;;;;7.80;3.92;;;18.50;99.90;;;;;;5098004;28;20515;-65
2022/05/12 04:15:16;;;;;;;8.35;3.47;;;18.50;99.90;;;;;;5089348;28;20044;-68
2022/05/12 04:17:44;;;;;;;13.05;4.18;;;18.40;99.90;;;;;;5102453;28;20047;-67
2022/05/12 04:20:13;;;;;;;8.13;3.88;;;18.50;99.90;;;;;;5108704;27;20451;-66
2022/05/12 04:22:43;;;;;;;8.88;4.07;;;18.50;99.90;;;;;;5107370;28;20059;-67
2022/05/12 04:25:11;;;;;;;8.75;3.85;;;18.50;99.90;;;;;;5109815;28;20080;-66
2022/05/12 04:27:40;;;;;;;5.57;3.67;;;18.50;99.90;;;;;;5107348;28;20116;-66
2022/05/12 04:30:11;;;;;;;6.07;3.53;;;18.60;99.90;;;;;;5097642;28;20562;-66
2022/05/12 04:32:39;;;;;;;7.15;3.70;;;18.60;99.90;;;;;;5103129;28;20430;-67
2022/05/12 04:35:14;;;;;;;10.02;3.75;;;18.50;99.90;;;;;;5096758;28;20077;-66
2022/05/12 04:37:48;;;;;;;5.63;3.50;;;18.60;99.90;;;;;;5106085;27;20447;-67
2022/05/12 04:40:26;;;;;;;8.65;4.13;;;18.60;99.90;;;;;;5108413;28;20081;-67
2022/05/12 04:42:54;;;;;;;5.93;3.33;;;18.70;99.90;;;;;;5108086;28;20039;-67
2022/05/12 04:45:24;;;;;;;7.32;4.00;;;18.80;99.90;;;;;;5098715;28;20360;-66
2022/05/12 04:47:52;;;;;;;5.57;3.25;;;18.80;99.90;;;;;;5102227;28;20047;-67
2022/05/12 04:50:26;;;;;;;6.38;3.45;;;18.90;99.90;;;;;;5106595;28;20095;-66
2022/05/12 04:52:54;;;;;;;6.80;3.47;;;18.80;99.90;;;;;;5107000;28;20094;-67
2022/05/12 04:55:22;;;;;;;6.38;3.65;;;18.80;99.90;;;;;;5108885;28;20062;-67
2022/05/12 04:57:55;;;;;;;6.53;3.30;;;18.70;99.90;;;;;;5103035;28;20441;-66
2022/05/12 05:00:32;;;;;;;8.43;3.78;;;18.80;99.90;;;;;;5102536;28;20104;-67
2022/05/12 05:03:00;;;;;;;7.00;3.30;;;18.80;99.90;;;;;;5087800;28;20470;-67
2022/05/12 05:05:28;;;;;;;5.90;3.30;;;18.90;99.90;;;;;;5089109;28;20069;-67
2022/05/12 05:07:56;;;;;;;7.60;3.25;;;18.90;99.90;;;;;;5095260;28;20043;-65
2022/05/12 05:10:24;;;;;;;12.80;3.83;;;18.90;99.90;;;;;;5107624;28;20615;-65
2022/05/12 05:12:53;;;;;;;7.57;3.30;;;18.90;99.90;;;;;;5106207;28;20047;-66
2022/05/12 05:15:23;;;;;;;8.43;3.65;;;18.90;99.90;;;;;;5106528;28;20591;-66
2022/05/12 05:17:58;;;;;;;6.13;2.90;;;18.90;99.90;;;;;;5101025;28;20046;-66
2022/05/12 05:20:28;;;;;;;6.60;3.30;;;19.00;99.90;;;;;;5103548;27;20036;-67
2022/05/12 05:22:55;;;;;;;7.22;3.40;;;19.00;99.90;;;;;;5108571;28;20055;-67
2022/05/12 05:25:23;;;;;;;13.77;3.63;;;19.00;99.90;;;;;;5103909;28;20052;-66
2022/05/12 05:27:52;;;;;;;10.80;3.70;;;19.00;99.90;;;;;;5108231;28;20335;-66
2022/05/12 05:30:21;;;;;;;11.30;3.58;;;19.10;99.90;;;;;;5107928;28;20098;-67
2022/05/12 05:32:49;;;;;;;11.55;3.50;;;19.10;99.90;;;;;;5096812;28;20153;-66
2022/05/12 05:35:17;;;;;;;10.27;3.55;;;19.10;99.90;;;;;;5108635;28;20040;-66
2022/05/12 05:37:44;;;;;;;6.47;3.10;;;19.20;99.90;;;;;;5108906;28;20049;-65
2022/05/12 05:40:14;;;;;;;16.58;3.22;;;19.20;99.90;;;;;;5099677;28;20449;-67
2022/05/12 05:42:44;;;;;;;11.32;2.85;;;19.30;99.90;;;;;;5093356;28;20163;-67
2022/05/12 05:45:15;;;;;;;4.78;2.72;;;19.30;99.90;;;;;;5103459;28;20518;-66
2022/05/12 05:47:45;;;;;;;6.32;2.63;;;19.40;99.90;;;;;;5105984;28;20054;-67
2022/05/12 05:50:19;;;;;;;6.75;2.97;;;19.50;99.90;;;;;;5102721;28;20440;-67
2022/05/12 05:55:32;;;;;;;6.22;3.05;;;19.50;99.90;;;;;;5101012;28;20100;-67
2022/05/12 05:58:01;;;;;;;6.65;3.10;;;19.40;99.90;;;;;;5110250;28;20039;-66
2022/05/12 06:00:31;;;;;;;6.80;3.17;;;19.30;99.90;;;;;;5108585;28;20043;-67
2022/05/12 06:02:59;;;;;;;8.40;3.25;;;19.40;99.90;;;;;;5091938;28;20499;-68
2022/05/12 06:05:27;;;;;;;5.65;2.70;;;19.40;99.90;;;;;;5106362;28;20043;-67
2022/05/12 06:07:55;;;;;;;8.38;2.72;;;19.40;99.90;;;;;;5100348;28;20051;-67
2022/05/12 06:10:24;;;;;;;9.32;3.00;;;19.50;99.90;;;;;;5105834;28;20381;-67
2022/05/12 06:12:51;;;;;;;6.90;2.70;;;19.60;99.90;;;;;;5096866;28;20092;-67
2022/05/12 06:15:19;;;;;;;5.22;2.70;;;19.60;99.90;;;;;;5111199;28;20130;-67
2022/05/12 06:17:46;;;;;;;5.60;2.40;;;19.60;99.90;;;;;;5109810;28;20134;-66
2022/05/12 06:20:20;;;;;;;6.07;2.58;;;19.60;99.90;;;;;;5110517;27;20048;-66
2022/05/12 06:22:47;;;;;;;5.68;2.35;;;19.70;99.90;;;;;;5109358;28;20047;-66
2022/05/12 06:25:17;;;;;;;11.85;2.92;;;19.70;99.90;;;;;;5107240;28;20126;-66
2022/05/12 06:27:45;;;;;;;10.00;2.92;;;19.80;99.90;;;;;;5111548;27;20191;-67
2022/05/12 06:30:14;;;;;;;8.02;2.90;;;19.90;99.90;;;;;;5099990;28;20359;-66
2022/05/12 06:32:42;;;;;;;8.65;2.70;;;20.10;99.90;;;;;;5111337;28;20039;-66
2022/05/12 06:35:12;;;;;;;7.45;2.70;;;20.00;99.90;;;;;;5104972;28;20078;-67
2022/05/12 06:37:39;;;;;;;7.90;2.90;;;20.00;99.90;;;;;;5108924;28;20058;-66
2022/05/12 06:40:08;;;;;;;5.20;2.72;;;19.90;99.90;;;;;;5102697;28;20059;-67
2022/05/12 06:42:36;;;;;;;8.32;3.05;;;20.10;99.90;;;;;;5111028;28;20418;-68
2022/05/12 06:45:06;;;;;;;7.00;2.53;;;20.30;99.90;;;;;;5096066;28;20138;-67
2022/05/12 06:47:33;;;;;;;5.68;2.45;;;20.40;99.90;;;;;;5111459;28;20470;-66
2022/05/12 06:50:03;;;;;;;6.95;2.45;;;20.50;99.90;;;;;;5110430;28;20153;-67
2022/05/12 06:52:30;;;;;;;6.78;2.47;;;20.60;99.90;;;;;;5103979;28;20059;-66
2022/05/12 06:54:58;;;;;;;5.30;2.50;;;20.70;99.90;;;;;;5111875;28;20383;-66
2022/05/12 06:57:28;;;;;;;6.60;2.78;;;20.70;99.90;;;;;;5103146;28;20044;-67
2022/05/12 06:59:56;;;;;;;9.15;2.60;;;20.40;99.90;;;;;;5090997;28;20486;-65
2022/05/12 07:02:25;;;;;;;7.43;2.60;;;20.20;99.90;;;;;;5091848;28;20130;-67
2022/05/12 07:04:53;;;;;;;6.40;2.53;;;20.20;99.90;;;;;;5089667;28;20051;-67
2022/05/12 07:07:21;;;;;;;5.15;2.58;;;20.30;99.90;;;;;;5093432;28;20055;-67
2022/05/12 07:09:52;;;;;;;7.72;2.25;;;20.50;99.90;;;;;;5093917;28;20052;-66
2022/05/12 07:12:21;;;;;;;4.82;2.40;;;20.50;99.90;;;;;;5088181;28;20046;-66
2022/05/12 07:14:49;;;;;;;5.63;2.53;;;20.40;99.90;;;;;;5095201;28;20480;-65
2022/05/12 07:17:20;;;;;;;5.25;2.05;;;20.40;99.90;;;;;;5091446;28;20043;-67
2022/05/12 07:19:49;;;;;;;8.60;2.10;;;20.30;99.90;;;;;;5099253;27;20048;-67
2022/05/12 07:27:49;;;;;;;6.80;2.13;;;20.30;99.90;;;;;;5108651;28;20124;-65
2022/05/12 07:30:17;;;;;;;7.97;2.50;;;20.40;99.90;;;;;;5105358;28;20578;-67
2022/05/12 07:32:44;;;;;;;6.55;2.45;;;20.40;99.90;;;;;;5091256;28;20047;-65
2022/05/12 07:35:12;;;;;;;6.72;2.10;;;20.40;99.90;;;;;;5093049;28;20495;-66
2022/05/12 07:37:41;;;;;;;6.93;2.20;;;20.30;99.90;;;;;;5093182;28;20127;-66
2022/05/12 07:40:09;;;;;;;5.35;2.25;;;20.10;99.90;;;;;;5088454;28;20036;-65
2022/05/12 07:42:37;;;;;;;9.18;2.10;;;20.20;99.90;;;;;;5089938;28;20044;-66
2022/05/12 07:45:05;;;;;;;9.05;2.25;;;20.20;99.90;;;;;;5088982;28;20060;-66
2022/05/12 07:47:33;;;;;;;5.95;2.28;;;20.30;99.90;;;;;;5095544;28;20052;-65
2022/05/12 07:50:00;;;;;;;7.43;2.50;;;20.40;99.90;;;;;;5101925;28;20490;-66
2022/05/12 07:52:29;;;;;;;6.82;2.40;;;20.50;99.90;;;;;;5105606;28;20040;-65
2022/05/12 07:54:57;;;;;;;4.50;2.53;;;20.70;99.90;;;;;;5103788;28;20404;-67
2022/05/12 07:57:25;;;;;;;6.43;2.40;;;21.00;99.90;;;;;;5109995;28;20151;-65
2022/05/12 07:59:52;;;;;;;6.50;2.15;;;21.20;99.90;;;;;;5100061;27;20078;-65
2022/05/12 08:02:20;;;;;;;5.05;2.15;;;21.30;99.90;;;;;;5088427;28;20111;-66
2022/05/12 08:04:48;;;;;;;4.75;2.10;;;21.60;99.90;;;;;;5094912;28;20455;-66
2022/05/12 08:07:15;;;;;;;5.28;2.20;;;21.80;99.90;;;;;;5097127;28;20036;-66
2022/05/12 08:09:43;;;;;;;6.10;2.05;;;21.50;99.90;;;;;;5102094;28;20376;-66
2022/05/12 08:12:11;;;;;;;5.38;2.03;;;21.50;99.90;;;;;;5099093;27;20089;-66
2022/05/12 08:14:39;;;;;;;4.07;2.00;;;21.70;99.90;;;;;;5091916;27;20060;-66
2022/05/12 08:17:06;;;;;;;7.85;2.15;;;21.60;99.90;;;;;;5088322;28;20075;-66
2022/05/12 08:19:34;;;;;;;5.05;2.00;;;21.50;99.90;;;;;;5096608;28;20032;-67
2022/05/12 08:22:07;;;;;;;9.70;2.00;;;21.50;99.90;;;;;;5090722;28;20044;-66
2022/05/12 08:24:34;;;;;;;4.82;1.90;;;21.20;99.90;;;;;;5090807;28;20451;-67
2022/05/12 08:27:02;;;;;;;8.68;2.20;;;21.20;99.90;;;;;;5093550;28;20525;-66
2022/05/12 08:29:29;;;;;;;7.30;2.13;;;21.30;99.90;;;;;;5102885;27;20044;-67
2022/05/12 08:31:56;;;;;;;7.57;1.92;;;21.60;99.90;;;;;;5104571;28;20530;-67
2022/05/12 08:34:23;;;;;;;4.72;2.25;;;21.70;99.90;;;;;;5097642;28;20066;-67
2022/05/12 08:36:52;;;;;;;5.55;1.95;;;21.70;99.90;;;;;;5108737;28;20081;-67
2022/05/12 08:39:20;;;;;;;4.78;1.60;;;21.50;99.90;;;;;;5102457;28;20048;-67
2022/05/12 08:41:58;;;;;;;4.85;1.80;;;21.60;99.90;;;;;;5095468;28;20532;-67
2022/05/12 08:44:26;;;;;;;12.57;1.95;;;21.90;99.90;;;;;;5096193;28;20430;-66
2022/05/12 08:47:00;;;;;;;4.38;1.45;;;21.80;99.90;;;;;;5107201;28;20047;-67
2022/05/12 08:49:42;;;;;;;4.93;1.67;;;21.70;99.90;;;;;;5100291;28;20178;-66
2022/05/12 08:52:25;;;;;;;;;;;21.40;99.90;;;;;;5108431;28;20355;-67
2022/05/12 08:54:56;;;;;;;3.80;1.65;;;21.50;99.90;;;;;;5108335;28;19931;-67
2022/05/12 08:57:37;;;;;;;3.90;1.83;;;21.40;99.90;;;;;;5106923;28;20072;-65
2022/05/12 09:00:09;;;;;;;5.38;1.70;;;21.70;99.90;;;;;;5106428;28;20050;-67
2022/05/12 09:03:09;;;;;;;4.00;1.75;;;21.70;99.90;;;;;;5086678;28;20054;-66
2022/05/12 09:05:59;;;;;;;7.07;1.77;;;21.70;99.90;;;;;;5091806;28;20479;-68
2022/05/12 09:08:50;;;;;;;4.53;1.63;;;21.60;99.90;;;;;;5091959;28;20290;-68
2022/05/12 09:11:39;;;;;;;3.67;1.90;;;21.70;99.90;;;;;;5098778;28;20263;-68
2022/05/12 09:14:20;;;;;;;3.95;1.98;;;21.70;99.90;;;;;;5094362;28;20571;-67
2022/05/12 09:16:52;;;;;;;4.88;1.90;;;22.00;99.90;;;;;;5104027;28;20959;-68
2022/05/12 09:19:19;;;;;;;6.53;1.75;;;22.20;99.90;;;;;;5109047;28;20043;-68
2022/05/12 09:21:47;;;;;;;7.70;1.83;;;22.10;99.90;;;;;;5103083;28;20038;-67
2022/05/12 09:24:14;;;;;;;4.82;2.00;;;22.50;99.90;;;;;;5103312;28;20040;-67
2022/05/12 09:26:48;;;;;;;5.72;1.85;;;22.60;99.90;;;;;;5087206;28;20044;-67
2022/05/12 09:29:23;;;;;;;8.30;2.00;;;22.80;99.90;;;;;;5103984;28;20039;-67
2022/05/12 09:31:55;;;;;;;7.75;2.10;;;22.70;99.90;;;;;;5088059;28;20048;-67
2022/05/12 09:34:36;;;;;;;9.77;2.22;;;22.90;99.90;;;;;;5098941;28;20101;-68
2022/05/12 09:37:15;;;;;;;5.80;2.00;;;22.60;99.90;;;;;;5105906;28;20061;-68
2022/05/12 09:39:56;;;;;;;3.13;1.80;;;22.60;99.90;;;;;;5063312;28;1163923;-68
2022/05/12 09:42:29;;;;;;;5.35;2.08;;;22.50;99.90;;;;;;5105549;28;20430;-67
2022/05/12 09:44:58;;;;;;;5.32;2.20;;;22.10;99.90;;;;;;5107226;28;20072;-67
2022/05/12 09:47:27;;;;;;;6.50;2.22;;;22.40;99.90;;;;;;5108767;28;20479;-67
2022/05/12 09:50:16;;;;;;;5.57;2.20;;;22.30;99.90;;;;;;5086203;28;20064;-68
2022/05/12 09:52:55;;;;;;;8.30;2.20;;;22.10;99.90;;;;;;5106384;28;20035;-68
2022/05/12 09:55:32;;;;;;;6.43;2.17;;;22.30;99.90;;;;;;5108588;28;20028;-66
2022/05/12 09:58:16;;;;;;;7.35;2.22;;;22.50;99.90;;;;;;5105919;28;20101;-66
2022/05/12 10:01:03;;;;;;;8.52;2.05;;;22.70;99.90;;;;;;5101681;28;20063;-67
2022/05/12 10:09:17;;;;;;;4.78;1.90;;;22.70;99.90;;;;;;5092827;28;20402;-66
2022/05/12 10:12:06;;;;;;;4.43;1.73;;;22.70;99.90;;;;;;5095218;28;20054;-68
2022/05/12 10:14:59;;;;;;;3.97;2.20;;;22.60;99.90;;;;;;5088342;28;20418;-67
2022/05/12 10:17:33;;;;;;;4.20;1.80;;;22.50;99.90;;;;;;5104655;28;20039;-66
2022/05/12 10:20:11;;;;;;;5.40;2.05;;;22.80;99.90;;;;;;5109045;28;20047;-68
2022/05/12 10:23:13;;;;;;;5.00;2.33;;;22.70;99.90;;;;;;5105045;28;20044;-67
2022/05/12 10:25:58;;;;;;;7.28;2.42;;;22.70;99.90;;;;;;5100577;28;20035;-68
2022/05/12 10:28:55;;;;;;;5.55;1.95;;;22.50;99.90;;;;;;5107054;28;20150;-67
2022/05/12 10:31:28;;;;;;;4.40;2.00;;;22.80;99.90;;;;;;5101701;28;20441;-67
2022/05/12 10:34:08;;;;;;;6.57;1.85;;;22.70;99.90;;;;;;5101021;28;20043;-67
2022/05/12 10:37:03;;;;;;;4.10;1.90;;;23.10;99.90;;;;;;5107913;28;20351;-67
2022/05/12 10:39:43;;;;;;;8.63;2.22;;;23.00;99.90;;;;;;5108664;28;20533;-66
2022/05/12 10:42:24;;;;;;;6.53;2.10;;;22.70;99.90;;;;;;5111225;28;20577;-68
2022/05/12 10:45:30;;;;;;;4.90;1.70;;;22.70;99.90;;;;;;5110617;28;20046;-68
2022/05/12 10:48:30;;;;;;;5.30;2.08;;;22.60;99.90;;;;;;5104137;28;20067;-67
2022/05/12 10:51:02;;;;;;;5.75;1.83;;;22.70;99.90;;;;;;5064796;28;20419;-68
2022/05/12 10:53:35;;;;;;;3.65;1.60;;;22.80;99.90;;;;;;5109950;28;20121;-66
2022/05/12 10:56:26;;;;;;;7.22;2.00;;;22.60;99.90;;;;;;5103998;28;20452;-65
2022/05/12 10:58:56;;;;;;;8.35;1.90;;;22.70;99.90;;;;;;5108736;28;20048;-66
2022/05/12 11:01:42;;;;;;;4.15;1.60;;;23.20;99.90;;;;;;5099649;28;20056;-65
2022/05/12 11:04:16;;;;;;;4.90;2.03;;;23.30;99.90;;;;;;5096277;28;20421;-65
2022/05/12 11:06:58;;;;;;;4.72;1.63;;;23.90;99.90;;;;;;5111051;28;20134;-67
2022/05/12 11:09:36;;;;;;;4.78;1.65;;;23.80;99.90;;;;;;5098038;28;20036;-66
2022/05/12 11:12:39;;;;;;;8.07;2.00;;;23.70;99.90;;;;;;5093018;28;20044;-67
2022/05/12 11:15:19;;;;;;;6.47;1.77;;;23.50;99.90;;;;;;5081910;28;20093;-67
2022/05/12 11:18:00;;;;;;;4.82;1.80;;;23.80;99.90;;;;;;5105872;28;20036;-66
2022/05/12 11:20:32;;;;;;;6.80;1.90;;;24.00;99.90;;;;;;5103881;27;20566;-66
2022/05/12 11:23:15;;;;;;;4.88;1.88;;;24.00;99.90;;;;;;5101405;28;20043;-67
2022/05/12 11:26:05;;;;;;;7.50;1.83;;;23.80;99.90;;;;;;5113816;27;20127;-68
2022/05/12 11:31:57;;;;;;;4.13;1.70;;;24.00;99.90;;;;;;5095353;28;20234;-68
2022/05/12 11:34:27;;;;;;;7.88;2.00;;;24.40;99.90;;;;;;5092332;28;20154;-67
2022/05/12 11:36:56;;;;;;;6.72;2.25;;;24.80;99.90;;;;;;5089781;28;20486;-67
2022/05/12 11:39:28;;;;;;;8.35;2.28;;;25.00;99.90;;;;;;5093118;28;20043;-69
2022/05/12 11:42:20;;;;;;;5.65;1.73;;;24.60;99.90;;;;;;5097795;28;20054;-67
2022/05/12 11:45:08;;;;;;;6.22;1.65;;;24.50;99.90;;;;;;5103165;28;20143;-67
2022/05/12 11:48:05;;;;;;;6.55;1.80;;;24.90;99.90;;;;;;5092028;28;20044;-67
2022/05/12 11:50:57;;;;;;;4.15;1.60;;;25.60;99.90;;;;;;5103142;28;20113;-69
2022/05/12 11:53:55;;;;;;;6.13;1.83;;;25.50;99.90;;;;;;5093587;28;20126;-67
2022/05/12 11:56:46;;;;;;;6.95;1.98;;;25.50;99.90;;;;;;5065521;28;20060;-67
2022/05/12 11:59:28;;;;;;;5.13;1.90;;;25.90;99.90;;;;;;5065853;28;20052;-67
2022/05/12 12:01:57;;;;;;;4.07;1.77;;;25.90;99.90;;;;;;5063737;28;20051;-66
2022/05/12 12:04:37;;;;;;;7.38;1.98;;;25.70;99.90;;;;;;5065901;28;20044;-67
2022/05/12 12:07:06;;;;;;;5.82;1.60;;;26.20;99.90;;;;;;5065298;28;20086;-65
2022/05/12 12:09:37;;;;;;;4.60;1.60;;;25.90;99.90;;;;;;5065371;28;20086;-67
2022/05/12 12:12:10;;;;;;;6.72;1.95;;;26.60;99.90;;;;;;5065934;28;20076;-68
2022/05/12 12:14:43;;;;;;;8.55;1.92;;;26.60;99.60;;;;;;5064024;28;20644;-67
2022/05/12 12:17:25;;;;;;;4.80;1.83;;;26.80;99.90;;;;;;5064578;28;20036;-68
2022/05/12 12:19:56;;;;;;;6.13;1.63;;;26.80;99.40;;;;;;5066917;28;20056;-67
2022/05/12 12:22:26;;;;;;;6.43;1.77;;;27.40;98.10;;;;;;5065027;28;20175;-67
2022/05/12 12:25:04;;;;;;;6.80;1.60;;;27.50;98.60;;;;;;5059662;28;20041;-69
2022/05/12 12:27:52;;;;;;;5.97;1.50;;;27.40;98.60;;;;;;5062967;28;20060;-67
2022/05/12 12:30:31;;;;;;;11.70;2.03;;;26.40;97.30;;;;;;5062005;28;20052;-68
2022/05/12 12:33:08;;;;;;;5.53;1.70;;;27.00;98.80;;;;;;5074765;28;20422;-67
2022/05/12 12:36:17;;;;;;;4.95;1.70;;;27.00;97.50;;;;;;5107982;28;20032;-66
2022/05/12 12:38:44;;;;;;;6.75;1.48;;;27.50;97.90;;;;;;5045829;28;20180;-68
2022/05/12 12:41:17;;;;;;;5.95;1.75;;;27.50;97.50;;;;;;5044294;28;20052;-66
2022/05/12 12:44:12;;;;;;;5.03;1.52;;;27.50;98.00;;;;;;5038652;28;20057;-68
2022/05/12 12:46:59;;;;;;;7.35;1.67;;;27.90;97.20;;;;;;5037108;28;20044;-68
2022/05/12 12:49:42;;;;;;;4.15;1.50;;;26.70;97.70;;;;;;5043808;28;20056;-67
2022/05/12 12:52:12;;;;;;;6.22;1.85;;;26.00;98.50;;;;;;5043222;28;20575;-68
2022/05/12 12:57:41;;;;;;;7.18;1.67;;;26.00;98.30;;;;;;5043618;28;20051;-68
2022/05/12 13:00:15;;;;;;;6.50;1.63;;;26.40;98.10;;;;;;5014704;28;20055;-68
2022/05/12 13:02:45;;;;;;;3.20;1.50;;;26.50;98.20;;;;;;5041911;28;20045;-67
2022/05/12 13:05:19;;;;;;;5.60;2.00;;;26.40;97.80;;;;;;5043366;28;20127;-67
2022/05/12 13:08:01;;;;;;;5.38;1.45;;;26.70;98.10;;;;;;5041907;28;20048;-67
2022/05/12 13:10:32;;;;;;;4.63;1.55;;;26.20;98.00;;;;;;5099681;28;20064;-67
2022/05/12 13:13:05;;;;;;;7.77;1.80;;;26.60;98.00;;;;;;5105895;28;20042;-66
2022/05/12 13:15:39;;;;;;;5.68;1.85;;;27.60;97.50;;;;;;5096678;28;20499;-67
2022/05/12 13:18:15;;;;;;;5.90;1.50;;;27.20;97.10;;;;;;5101433;28;20558;-67
2022/05/12 13:21:00;;;;;;;7.07;2.00;;;26.60;97.20;;;;;;5091069;28;20562;-68
2022/05/12 13:23:31;;;;;;;4.68;1.90;;;26.10;98.00;;;;;;5098533;28;20035;-67
2022/05/12 13:26:05;;;;;;;6.18;2.20;;;26.60;97.70;;;;;;5107434;28;20119;-70
2022/05/12 13:28:37;;;;;;;7.78;1.90;;;26.40;97.70;;;;;;5102633;28;20040;-67
2022/05/12 13:31:11;;;;;;;5.47;1.67;;;26.20;98.50;;;;;;5102456;28;20048;-67
2022/05/12 13:33:55;;;;;;;6.63;1.90;;;25.30;98.70;;;;;;5106640;28;20491;-67